Time;durP1;ratioP1;P1;durP2;ratioP2;P2;SDS_P1;SDS_P2;PMS_P1;PMS_P2;Temp;Humidity;BMP_temperature;BMP_pressure;BME280_temperature;BME280_humidity;BME280_pressure;Samples;Min_cycle;Max_cycle;Signal;HPM_P1;HPM_P2
2021/08/23 00:01:41;;;;;;;12.20;11.00;;;;;;;17.08;97.61;101800.25;5054363;28;20251;-36
2021/08/23 00:04:06;;;;;;;;;;;;;;;17.19;96.45;101807.50;5054118;28;20024;-36
2021/08/23 00:06:31;;;;;;;11.40;9.48;;;;;;;17.14;97.28;101804.72;5054559;28;19913;-36
2021/08/23 00:08:57;;;;;;;;;;;;;;;17.21;96.50;101805.34;5054560;28;20021;-36
2021/08/23 00:11:22;;;;;;;10.40;9.40;;;;;;;17.13;97.31;101808.53;5054101;28;19905;-36
2021/08/23 00:13:47;;;;;;;12.90;10.10;;;;;;;17.14;97.61;101801.16;5053442;28;20274;-36
2021/08/23 00:16:13;;;;;;;;;;;;;;;17.17;96.83;101808.84;5053936;28;20467;-36
2021/08/23 00:18:38;;;;;;;9.73;8.82;;;;;;;17.13;97.61;101805.78;5053975;28;20322;-36
2021/08/23 00:21:11;;;;;;;10.63;9.57;;;;;;;17.10;97.93;101810.94;5054140;28;20334;-36
2021/08/23 00:23:37;;;;;;;10.60;9.57;;;;;;;17.08;98.39;101815.78;5054075;28;20017;-36
2021/08/23 00:26:03;;;;;;;12.68;11.32;;;;;;;16.94;98.48;101798.94;5053870;28;20033;-36
2021/08/23 00:28:28;;;;;;;13.45;11.23;;;;;;;16.99;98.86;101813.50;5053485;28;20025;-36
2021/08/23 00:30:54;;;;;;;11.68;10.68;;;;;;;16.94;99.04;101821.63;5054011;28;20029;-36
2021/08/23 00:33:19;;;;;;;13.95;11.38;;;;;;;17.00;99.20;101822.53;5053129;28;20016;-36
2021/08/23 00:35:45;;;;;;;13.23;11.95;;;;;;;17.00;99.12;101825.28;5052378;28;20044;-36
2021/08/23 00:38:10;;;;;;;;;;;;;;;17.08;98.15;101832.19;5053727;28;20067;-36
2021/08/23 00:40:35;;;;;;;13.03;11.60;;;;;;;17.02;98.52;101822.28;5053375;28;19905;-36
2021/08/23 00:43:01;;;;;;;;;;;;;;;17.13;97.79;101832.28;5054165;28;20271;-36
2021/08/23 00:45:26;;;;;;;13.15;11.82;;;;;;;17.04;98.73;101833.78;5053984;28;19904;-36
2021/08/23 00:47:52;;;;;;;;;;;;;;;17.13;97.23;101835.84;5053467;28;20036;-36
2021/08/23 00:50:18;;;;;;;14.88;13.50;;;;;;;17.10;98.47;101841.81;5053210;28;19908;-36
2021/08/23 00:52:44;;;;;;;15.95;14.25;;;;;;;17.16;98.76;101840.81;5053075;28;20037;-36
2021/08/23 00:55:09;;;;;;;14.85;13.52;;;;;;;17.09;98.69;101829.22;5053149;28;20032;-36
2021/08/23 00:57:43;;;;;;;;;;;;;;;17.25;97.70;101855.69;5054035;28;20446;-36
2021/08/23 01:00:11;;;;;;;16.77;15.20;;;;;;;17.14;98.53;101853.91;5053041;28;19964;-36
2021/08/23 01:02:45;;;;;;;17.83;16.02;;;;;;;17.17;99.08;101858.84;5052933;28;20449;-36
2021/08/23 01:05:19;;;;;;;17.77;15.95;;;;;;;17.12;100.00;101860.69;5052465;28;20025;-36
2021/08/23 01:08:05;;;;;;;16.45;14.85;;;;;;;17.14;100.00;101862.09;5053273;28;20020;-36
2021/08/23 01:10:37;;;;;;;16.65;14.98;;;;;;;17.17;100.00;101856.13;5053156;28;20013;-36
2021/08/23 01:13:05;;;;;;;16.08;14.48;;;;;;;17.11;100.00;101853.56;5052813;28;20037;-36
2021/08/23 01:15:31;;;;;;;16.10;14.48;;;;;;;17.03;99.81;101852.09;5053344;28;20029;-36
2021/08/23 01:17:56;;;;;;;16.48;14.88;;;;;;;17.17;100.00;101880.72;5053225;28;20048;-36
2021/08/23 01:20:21;;;;;;;;;;;;;;;17.22;99.42;101880.78;5051536;28;20139;-36
2021/08/23 01:22:53;;;;;;;13.95;12.70;;;;;;;17.20;99.48;101885.69;5051512;28;19904;-36
2021/08/23 01:25:32;;;;;;;14.55;13.13;;;;;;;17.12;100.00;101872.44;5053361;28;20400;-36
2021/08/23 01:28:01;;;;;;;14.88;13.48;;;;;;;17.16;99.93;101895.47;5053031;28;20131;-36
2021/08/23 01:30:29;;;;;;;15.77;14.07;;;;;;;17.13;100.00;101895.97;5052836;28;20025;-36
2021/08/23 01:32:54;;;;;;;18.33;16.52;;;;;;;17.07;100.00;101896.97;5051744;28;20116;-36
2021/08/23 01:35:22;;;;;;;15.25;13.73;;;;;;;17.02;100.00;101885.13;5053278;28;20104;-36
2021/08/23 01:37:48;;;;;;;17.25;14.50;;;;;;;17.01;100.00;101897.97;5052379;28;20451;-36
2021/08/23 01:40:14;;;;;;;18.05;16.13;;;;;;;17.12;100.00;101913.44;5053125;28;20032;-36
2021/08/23 01:42:39;;;;;;;19.95;16.95;;;;;;;17.05;100.00;101898.28;5052954;28;20446;-36
2021/08/23 01:45:05;;;;;;;;;;;;;;;17.19;99.58;101922.31;5057247;28;20017;-36
2021/08/23 01:47:30;;;;;;;17.52;15.77;;;;;;;17.08;99.58;101901.38;5056053;28;20018;-36
2021/08/23 01:49:55;;;;;;;21.92;16.88;;;;;;;17.14;100.00;101926.88;5056860;28;20028;-36
2021/08/23 01:52:20;;;;;;;;;;;;;;;17.15;99.79;101932.06;5057509;28;20028;-36
2021/08/23 01:54:46;;;;;;;20.23;18.15;;;;;;;17.16;100.00;101935.63;5056691;28;20003;-36
2021/08/23 01:57:15;;;;;;;;;;;;;;;17.19;99.28;101933.25;5057505;28;20032;-36
2021/08/23 01:59:40;;;;;;;23.90;21.60;;;;;;;17.10;99.84;101934.72;5056326;28;20329;-36
2021/08/23 02:02:06;;;;;;;24.35;21.83;;;;;;;17.06;100.00;101939.03;5056732;28;20021;-36
2021/08/23 02:04:31;;;;;;;;;;;;;;;17.14;99.52;101943.28;5056882;28;20370;-36
2021/08/23 02:06:56;;;;;;;25.33;22.73;;;;;;;16.97;100.00;101940.50;5057041;28;19922;-36
2021/08/23 02:09:22;;;;;;;;;;;;;;;17.06;99.12;101957.34;5056694;28;20086;-36
2021/08/23 02:11:47;;;;;;;23.87;21.40;;;;;;;16.94;99.71;101963.72;5056839;28;19920;-36
2021/08/23 02:14:12;;;;;;;;;;;;;;;16.98;99.18;101970.34;5056661;28;20021;-36
2021/08/23 02:16:40;;;;;;;21.90;19.70;;;;;;;16.81;98.82;101954.97;5056506;28;19912;-36
2021/08/23 02:19:07;;;;;;;21.27;18.88;;;;;;;16.86;99.47;101969.56;5056335;28;20278;-36
2021/08/23 02:21:43;;;;;;;20.77;18.58;;;;;;;16.86;99.09;101971.47;5056607;28;20021;-36
2021/08/23 02:24:08;;;;;;;20.75;18.65;;;;;;;16.86;99.25;101979.66;5056375;28;20066;-36
2021/08/23 02:26:33;;;;;;;;;;;;;;;16.90;98.52;101984.38;5056736;28;20033;-36
2021/08/23 02:28:59;;;;;;;21.73;19.45;;;;;;;16.78;98.71;101993.69;5056035;28;20325;-36
2021/08/23 02:31:24;;;;;;;;;;;;;;;16.85;98.15;101991.66;5057171;28;20039;-36
2021/08/23 02:33:49;;;;;;;22.57;20.37;;;;;;;16.75;98.94;101995.03;5056423;28;20261;-36
2021/08/23 02:36:14;;;;;;;22.93;20.53;;;;;;;16.69;99.40;101985.88;5056441;28;20711;-36
2021/08/23 02:38:40;;;;;;;21.55;19.35;;;;;;;16.83;98.94;102007.47;5055572;28;20272;-36
2021/08/23 02:41:05;;;;;;;23.00;20.08;;;;;;;16.77;99.36;101994.78;5055862;28;20074;-36
2021/08/23 02:43:30;;;;;;;;;;;;;;;16.86;98.88;102009.72;5056730;28;20078;-36
2021/08/23 02:45:56;;;;;;;24.73;21.97;;;;;;;16.77;99.56;102006.53;5056141;28;19908;-36
2021/08/23 02:48:21;;;;;;;27.60;24.52;;;;;;;16.68;99.66;102011.53;5055610;28;20390;-36
2021/08/23 02:50:46;;;;;;;;;;;;;;;16.78;98.95;102012.81;5056787;28;20395;-36
2021/08/23 02:53:11;;;;;;;26.67;23.00;;;;;;;16.71;99.36;102016.53;5055299;28;19984;-36
2021/08/23 02:55:37;;;;;;;26.17;23.33;;;;;;;16.63;99.86;102005.13;5054850;28;20263;-36
2021/08/23 02:58:02;;;;;;;;;;;;;;;16.81;98.89;102013.19;5055937;28;20053;-36
2021/08/23 03:00:27;;;;;;;28.70;23.07;;;;;;;16.76;99.89;102028.63;5055966;28;19994;-36
2021/08/23 03:02:52;;;;;;;;;;;;;;;16.85;99.05;102022.53;5056115;28;20112;-36
2021/08/23 03:05:18;;;;;;;25.93;22.87;;;;;;;16.75;99.50;102027.00;5055427;28;20037;-36
2021/08/23 03:07:43;;;;;;;25.27;22.67;;;;;;;16.79;99.66;102014.47;5055594;28;20287;-36
2021/08/23 03:10:08;;;;;;;;;;;;;;;16.83;99.05;102021.94;5055338;28;20025;-36
2021/08/23 03:12:34;;;;;;;28.40;25.30;;;;;;;16.65;99.77;102008.47;5055738;28;19905;-36
2021/08/23 03:15:00;;;;;;;;;;;;;;;16.81;99.12;102026.84;5055481;28;20515;-36
2021/08/23 03:17:25;;;;;;;27.40;24.57;;;;;;;16.71;99.79;102029.34;5055221;28;19904;-36
2021/08/23 03:19:50;;;;;;;26.33;23.60;;;;;;;16.63;100.00;102016.88;5055198;28;20267;-36
2021/08/23 03:22:15;;;;;;;;;;;;;;;16.76;99.90;102036.84;5055911;28;20031;-36
2021/08/23 03:24:41;;;;;;;25.67;22.97;;;;;;;16.68;100.00;102046.19;5055206;28;20312;-36
2021/08/23 03:27:06;;;;;;;;;;;;;;;16.75;99.63;102046.94;5055010;28;20024;-36
2021/08/23 03:29:31;;;;;;;24.92;22.27;;;;;;;16.70;99.89;102049.53;5054753;28;19909;-36
2021/08/23 03:31:56;;;;;;;;;;;;;;;16.72;99.11;102055.59;5055257;28;20067;-36
2021/08/23 03:34:22;;;;;;;24.23;21.77;;;;;;;16.59;98.91;102045.78;5053763;28;20003;-36
2021/08/23 03:36:47;;;;;;;;;;;;;;;16.72;98.67;102061.88;5055929;28;20028;-36
2021/08/23 03:39:16;;;;;;;24.33;21.42;;;;;;;16.64;98.94;102062.25;5054648;28;20276;-36
2021/08/23 03:41:42;;;;;;;26.08;22.73;;;;;;;16.64;99.39;102062.25;5054866;28;20497;-36
2021/08/23 03:44:07;;;;;;;25.73;22.77;;;;;;;16.61;99.20;102053.72;5055049;28;20104;-36
2021/08/23 03:46:33;;;;;;;;;;;;;;;16.68;99.01;102066.13;5055415;28;20024;-36
2021/08/23 03:49:03;;;;;;;26.30;22.85;;;;;;;16.61;99.57;102070.09;5054470;28;19955;-36
2021/08/23 03:51:28;;;;;;;26.52;23.67;;;;;;;16.60;100.00;102074.75;5054476;28;20128;-36
2021/08/23 03:53:54;;;;;;;28.30;24.30;;;;;;;16.59;99.65;102081.28;5054125;28;20461;-36
2021/08/23 03:56:19;;;;;;;;;;;;;;;16.65;99.24;102074.84;5055074;28;20036;-36
2021/08/23 03:58:45;;;;;;;29.75;24.17;;;;;;;16.63;99.89;102087.06;5054349;28;19909;-36
2021/08/23 04:01:10;;;;;;;31.63;25.15;;;;;;;16.64;100.00;102088.72;5054050;28;20103;-36
2021/08/23 04:03:35;;;;;;;34.45;27.33;;;;;;;16.64;100.00;102086.84;5054566;28;20025;-36
2021/08/23 04:06:01;;;;;;;35.53;28.10;;;;;;;16.59;100.00;102080.41;5054484;28;20044;-36
2021/08/23 04:08:26;;;;;;;;;;;;;;;16.69;100.00;102097.88;5054050;28;20017;-36
2021/08/23 04:10:51;;;;;;;36.60;26.53;;;;;;;16.56;100.00;102080.91;5054299;28;20364;-36
2021/08/23 04:13:17;;;;;;;32.87;26.23;;;;;;;16.66;100.00;102098.34;5054468;28;20272;-36
2021/08/23 04:15:46;;;;;;;34.60;25.77;;;;;;;16.66;100.00;102092.88;5054830;28;20252;-36
2021/08/23 04:18:12;;;;;;;32.40;24.33;;;;;;;16.69;100.00;102099.78;5053756;28;20025;-36
2021/08/23 04:20:37;;;;;;;29.52;23.48;;;;;;;16.69;100.00;102107.97;5053513;28;20036;-36
2021/08/23 04:23:02;;;;;;;;;;;;;;;16.78;100.00;102100.22;5054197;28;20033;-36
2021/08/23 04:25:28;;;;;;;32.07;22.47;;;;;;;16.71;100.00;102103.09;5053925;28;19905;-36
2021/08/23 04:27:53;;;;;;;27.00;21.67;;;;;;;16.78;100.00;102112.00;5053549;28;20774;-36
2021/08/23 04:30:18;;;;;;;;;;;;;;;16.84;99.76;102111.03;5054218;28;20453;-34
2021/08/23 04:32:44;;;;;;;24.92;21.27;;;;;;;16.70;100.00;102098.69;5054285;28;19904;-35
2021/08/23 04:35:09;;;;;;;24.67;20.08;;;;;;;16.79;100.00;102118.28;5053538;28;20145;-36
2021/08/23 04:37:34;;;;;;;;;;;;;;;16.87;100.00;102124.19;5054678;28;20469;-36
2021/08/23 04:40:00;;;;;;;26.37;21.13;;;;;;;16.79;100.00;102129.19;5053461;28;20430;-36
2021/08/23 04:42:25;;;;;;;;;;;;;;;16.84;99.61;102135.63;5053670;28;20070;-36
2021/08/23 04:44:50;;;;;;;25.70;21.47;;;;;;;16.71;99.88;102127.66;5053866;28;19904;-36
2021/08/23 04:47:15;;;;;;;25.00;21.67;;;;;;;16.72;99.53;102138.38;5052981;28;20325;-36
2021/08/23 04:49:41;;;;;;;25.90;20.80;;;;;;;16.64;100.00;102130.53;5053412;28;20267;-36
2021/08/23 04:52:06;;;;;;;25.63;20.60;;;;;;;16.61;99.75;102128.28;5053334;28;20247;-36
2021/08/23 04:54:31;;;;;;;;;;;;;;;16.72;99.25;102141.09;5053358;28;20090;-36
2021/08/23 04:56:57;;;;;;;28.73;20.10;;;;;;;16.52;99.60;102129.72;5053436;28;19905;-36
2021/08/23 04:59:22;;;;;;;27.30;21.60;;;;;;;16.64;99.38;102159.72;5053149;28;20373;-36
2021/08/23 05:01:47;;;;;;;;;;;;;;;16.68;98.86;102158.19;5053871;28;20060;-36
2021/08/23 05:04:12;;;;;;;28.23;23.00;;;;;;;16.60;99.38;102164.03;5053407;28;19999;-36
2021/08/23 05:06:38;;;;;;;27.83;21.80;;;;;;;16.53;99.30;102158.66;5053419;28;20601;-36
2021/08/23 05:09:03;;;;;;;;;;;;;;;16.66;98.70;102169.34;5053264;28;20476;-36
2021/08/23 05:11:29;;;;;;;25.50;22.40;;;;;;;16.58;98.55;102171.59;5053111;28;20260;-36
2021/08/23 05:13:54;;;;;;;28.13;22.55;;;;;;;16.55;99.07;102175.66;5053233;28;20024;-36
2021/08/23 05:16:20;;;;;;;26.77;22.92;;;;;;;16.54;99.23;102178.59;5053070;28;20035;-36
2021/08/23 05:18:45;;;;;;;26.67;23.08;;;;;;;16.62;99.45;102186.44;5052723;28;20104;-36
2021/08/23 05:21:10;;;;;;;;;;;;;;;16.65;98.48;102189.53;5053198;28;20032;-36
2021/08/23 05:23:36;;;;;;;24.87;20.70;;;;;;;16.61;98.73;102195.72;5052947;28;20356;-36
2021/08/23 05:26:05;;;;;;;;;;;;;;;16.62;98.31;102192.75;5052954;28;20060;-36
2021/08/23 05:28:30;;;;;;;27.52;22.50;;;;;;;16.49;98.60;102201.16;5052934;28;19916;-36
2021/08/23 05:30:56;;;;;;;29.48;22.30;;;;;;;16.51;98.73;102203.69;5053346;28;20450;-36
2021/08/23 05:33:21;;;;;;;;;;;;;;;16.57;97.90;102203.53;5053530;28;20048;-36
2021/08/23 05:35:46;;;;;;;29.90;23.43;;;;;;;16.51;98.91;102209.13;5053194;28;20309;-36
2021/08/23 05:38:11;;;;;;;;;;;;;;;16.55;98.25;102213.88;5052990;28;20104;-36
2021/08/23 05:40:37;;;;;;;33.63;25.23;;;;;;;16.45;98.79;102217.22;5052792;28;20353;-36
2021/08/23 05:43:02;;;;;;;;;;;;;;;16.50;98.33;102221.13;5053176;28;20045;-36
2021/08/23 05:45:28;;;;;;;38.07;27.03;;;;;;;16.34;97.89;102225.38;5052473;28;19909;-36
2021/08/23 05:47:54;;;;;;;36.38;26.35;;;;;;;16.19;98.48;102218.47;5052424;28;20276;-36
2021/08/23 05:50:19;;;;;;;36.53;26.48;;;;;;;16.22;98.78;102233.56;5053078;28;20032;-37
2021/08/23 05:52:44;;;;;;;35.38;25.20;;;;;;;16.22;99.16;102219.91;5052313;28;20017;-36
2021/08/23 05:55:10;;;;;;;;;;;;;;;16.38;98.57;102238.31;5053817;28;20065;-36
2021/08/23 05:57:35;;;;;;;30.92;23.50;;;;;;;16.31;97.66;102234.06;5052626;28;19995;-36
2021/08/23 06:00:01;;;;;;;31.17;23.25;;;;;;;16.28;98.26;102235.34;5053158;28;20028;-36
2021/08/23 06:02:26;;;;;;;;;;;;;;;16.37;97.57;102238.56;5053772;28;20037;-36
2021/08/23 06:04:51;;;;;;;30.73;23.80;;;;;;;16.27;98.31;102244.59;5052282;28;19905;-36
2021/08/23 06:07:17;;;;;;;28.15;23.20;;;;;;;16.25;97.79;102248.63;5053357;28;20288;-36
2021/08/23 06:09:42;;;;;;;29.30;22.50;;;;;;;16.10;98.31;102219.88;5052047;28;20033;-36
2021/08/23 06:12:07;;;;;;;;;;;;;;;16.34;97.87;102250.78;5053112;28;20065;-36
2021/08/23 06:14:33;;;;;;;30.38;21.67;;;;;;;16.23;98.65;102252.44;5052814;28;19916;-36
2021/08/23 06:16:58;;;;;;;25.63;20.67;;;;;;;16.23;98.03;102246.13;5053077;28;20036;-36
2021/08/23 06:19:23;;;;;;;;;;;;;;;16.36;97.93;102256.03;5051352;28;20083;-36
2021/08/23 06:21:48;;;;;;;23.40;19.90;;;;;;;16.25;97.05;102262.28;5051896;28;19916;-36
2021/08/23 06:24:14;;;;;;;24.93;19.73;;;;;;;16.16;97.20;102251.72;5052331;28;20263;-36
2021/08/23 06:26:39;;;;;;;25.53;19.17;;;;;;;16.20;97.48;102263.81;5050571;28;20306;-36
2021/08/23 06:29:06;;;;;;;24.50;18.50;;;;;;;16.25;97.72;102271.31;5052234;28;20723;-36
2021/08/23 06:31:31;;;;;;;22.35;17.50;;;;;;;16.18;97.58;102252.28;5055997;28;20346;-36
2021/08/23 06:33:57;;;;;;;21.92;17.55;;;;;;;16.20;97.69;102258.38;5056742;28;20390;-36
2021/08/23 06:36:22;;;;;;;;;;;;;;;16.41;97.01;102269.78;5056369;28;20025;-36
2021/08/23 06:38:47;;;;;;;19.50;16.13;;;;;;;16.44;97.52;102269.31;5055949;28;19905;-36
2021/08/23 06:41:20;;;;;;;;;;;;;;;16.49;96.73;102269.44;5056800;28;20025;-36
2021/08/23 06:43:46;;;;;;;19.27;15.93;;;;;;;16.40;96.53;102273.59;5055789;28;19911;-36
2021/08/23 06:46:11;;;;;;;;;;;;;;;16.43;95.55;102284.03;5056415;28;20021;-36
2021/08/23 06:48:36;;;;;;;23.67;15.52;;;;;;;16.34;96.65;102279.97;5055818;28;20241;-36
2021/08/23 06:51:02;;;;;;;20.50;16.23;;;;;;;16.37;95.59;102280.34;5055534;28;20075;-36
2021/08/23 06:53:27;;;;;;;21.52;16.60;;;;;;;16.32;96.09;102288.41;5055384;28;20048;-36
2021/08/23 06:55:53;;;;;;;18.35;15.82;;;;;;;16.36;95.66;102288.78;5056157;28;20373;-36
2021/08/23 06:58:18;;;;;;;;;;;;;;;16.45;95.92;102285.47;5055881;28;20021;-36
2021/08/23 07:00:43;;;;;;;20.07;16.07;;;;;;;16.42;96.18;102285.94;5055577;28;19916;-36
2021/08/23 07:03:08;;;;;;;19.73;16.88;;;;;;;16.49;96.16;102294.00;5055753;28;20260;-36
2021/08/23 07:05:34;;;;;;;20.40;17.95;;;;;;;16.39;94.91;102280.09;5055371;28;20041;-36
2021/08/23 07:07:59;;;;;;;;;;;;;;;16.57;94.94;102307.31;5055706;28;20021;-36
2021/08/23 07:10:24;;;;;;;21.43;17.03;;;;;;;16.55;95.75;102292.25;5055611;28;19909;-36
2021/08/23 07:12:50;;;;;;;19.95;17.77;;;;;;;16.63;95.83;102294.63;5055734;28;20267;-36
2021/08/23 07:15:15;;;;;;;22.38;16.85;;;;;;;16.53;94.41;102284.28;5054615;28;20052;-36
2021/08/23 07:17:40;;;;;;;19.58;16.67;;;;;;;16.60;94.05;102293.19;5055837;28;20100;-36
2021/08/23 07:20:06;;;;;;;;;;;;;;;16.77;94.84;102298.81;5055637;28;20100;-36
2021/08/23 07:22:31;;;;;;;18.15;16.25;;;;;;;16.73;95.38;102284.78;5054881;28;19909;-36
2021/08/23 07:24:56;;;;;;;;;;;;;;;16.88;94.46;102302.59;5053853;28;20044;-36
2021/08/23 07:27:23;;;;;;;20.77;16.97;;;;;;;16.72;94.23;102288.59;5055772;28;19916;-36
2021/08/23 07:29:48;;;;;;;18.08;16.17;;;;;;;16.89;95.00;102302.41;5055224;28;20271;-36
2021/08/23 07:32:14;;;;;;;22.40;16.05;;;;;;;16.95;94.79;102303.34;5055071;28;20425;-36
2021/08/23 07:34:39;;;;;;;19.70;15.65;;;;;;;17.05;93.79;102311.75;5055024;28;20108;-36
2021/08/23 07:37:05;;;;;;;18.70;15.73;;;;;;;17.11;93.18;102308.06;5055271;28;20024;-36
2021/08/23 07:39:30;;;;;;;;;;;;;;;17.25;94.07;102320.41;5055281;28;20040;-36
2021/08/23 07:41:55;;;;;;;19.37;15.33;;;;;;;17.15;93.24;102305.69;5054648;28;19927;-36
2021/08/23 07:44:21;;;;;;;;;;;;;;;17.31;92.96;102321.34;5055139;28;20299;-36
2021/08/23 07:46:46;;;;;;;18.90;14.52;;;;;;;17.17;91.87;102315.31;5054619;28;19991;-36
2021/08/23 07:49:11;;;;;;;;;;;;;;;17.38;92.84;102321.25;5055054;28;20017;-36
2021/08/23 07:51:36;;;;;;;18.08;13.85;;;;;;;17.45;92.39;102328.22;5054873;28;19911;-36
2021/08/23 07:54:02;;;;;;;;;;;;;;;17.54;91.97;102323.22;5054962;28;20021;-36
2021/08/23 07:56:29;;;;;;;14.95;13.38;;;;;;;17.55;90.32;102324.88;5055096;28;20337;-36
2021/08/23 07:58:56;;;;;;;17.95;14.05;;;;;;;17.69;90.42;102325.44;5054598;28;20025;-36
2021/08/23 08:01:22;;;;;;;16.10;12.50;;;;;;;17.80;88.74;102323.75;5054438;28;20476;-36
2021/08/23 08:03:48;;;;;;;15.10;11.85;;;;;;;17.85;89.44;102326.59;5054317;28;20108;-36
2021/08/23 08:06:13;;;;;;;15.32;12.23;;;;;;;17.80;88.11;102326.50;5054458;28;20452;-36
2021/08/23 08:08:38;;;;;;;;;;;;;;;17.90;89.01;102338.47;5054655;28;20070;-36
2021/08/23 08:11:04;;;;;;;13.00;10.50;;;;;;;17.75;87.52;102339.00;5054516;28;20264;-36
2021/08/23 08:13:29;;;;;;;15.27;11.27;;;;;;;17.74;87.38;102333.78;5053866;28;20735;-36
2021/08/23 08:15:54;;;;;;;;;;;;;;;17.88;89.01;102334.31;5055130;28;20060;-36
2021/08/23 08:18:20;;;;;;;14.73;9.70;;;;;;;17.73;87.78;102318.44;5054264;28;19912;-36
2021/08/23 08:20:45;;;;;;;;;;;;;;;18.00;89.21;102337.84;5054751;28;20408;-36
2021/08/23 08:23:11;;;;;;;13.93;8.27;;;;;;;17.88;85.84;102320.66;5053686;28;20372;-36
2021/08/23 08:25:36;;;;;;;;;;;;;;;18.12;87.86;102346.84;5054360;28;20032;-36
2021/08/23 08:28:02;;;;;;;11.05;7.70;;;;;;;18.08;86.75;102348.41;5054000;28;19961;-36
2021/08/23 08:30:27;;;;;;;;;;;;;;;18.17;85.93;102349.66;5054206;28;20025;-36
2021/08/23 08:32:53;;;;;;;8.40;6.32;;;;;;;18.17;85.89;102341.47;5053689;28;20339;-36
2021/08/23 08:35:18;;;;;;;;;;;;;;;18.38;87.20;102358.25;5053523;28;20017;-36
2021/08/23 08:37:43;;;;;;;11.67;6.77;;;;;;;18.36;84.53;102358.50;5053876;28;20407;-36
2021/08/23 08:40:09;;;;;;;;;;;;;;;18.56;85.94;102362.69;5053812;28;20743;-36
2021/08/23 08:42:34;;;;;;;9.88;6.75;;;;;;;18.55;83.17;102361.84;5053989;28;19905;-36
2021/08/23 08:45:00;;;;;;;;;;;;;;;18.64;84.08;102359.50;5053662;28;20029;-36
2021/08/23 08:47:26;;;;;;;8.52;6.10;;;;;;;18.53;83.06;102364.00;5053639;28;19913;-36
2021/08/23 08:49:52;;;;;;;9.13;7.18;;;;;;;18.37;82.87;102368.38;5053184;28;20029;-36
2021/08/23 08:52:20;;;;;;;8.07;6.65;;;;;;;18.27;82.25;102377.25;5053046;28;20024;-36
2021/08/23 08:54:45;;;;;;;11.35;6.78;;;;;;;18.18;82.89;102377.88;5052931;28;20029;-36
2021/08/23 08:57:11;;;;;;;;;;;;;;;18.33;84.43;102386.38;5053756;28;20111;-36
2021/08/23 08:59:37;;;;;;;8.57;6.20;;;;;;;18.12;81.98;102378.88;5053340;28;19905;-36
2021/08/23 09:02:02;;;;;;;;;;;;;;;18.27;83.57;102388.19;5054518;28;20025;-36
2021/08/23 09:04:35;;;;;;;12.25;7.15;;;;;;;18.04;84.10;102365.56;5053546;28;20387;-36
2021/08/23 09:07:01;;;;;;;8.88;6.53;;;;;;;18.15;83.81;102373.72;5053750;28;20044;-36
2021/08/23 09:09:27;;;;;;;9.80;7.10;;;;;;;18.28;84.32;102384.38;5053419;28;20021;-36
2021/08/23 09:12:00;;;;;;;;;;;;;;;18.51;84.86;102382.59;5054439;28;20035;-36
2021/08/23 09:14:26;;;;;;;9.20;6.28;;;;;;;18.50;83.49;102386.41;5053190;28;19904;-36
2021/08/23 09:16:53;;;;;;;11.27;6.85;;;;;;;18.55;85.36;102386.50;5053150;28;20029;-36
2021/08/23 09:19:24;;;;;;;10.23;6.93;;;;;;;18.48;82.34;102391.28;5053262;28;20021;-36
2021/08/23 09:22:02;;;;;;;9.00;6.53;;;;;;;18.47;82.65;102381.44;5053558;28;20054;-36
2021/08/23 09:24:35;;;;;;;10.18;6.30;;;;;;;18.45;79.77;102392.63;5053324;28;20468;-36
2021/08/23 09:27:08;;;;;;;9.40;5.75;;;;;;;18.48;80.92;102396.78;5053232;28;20029;-36
2021/08/23 09:29:59;;;;;;;11.40;6.50;;;;;;;18.63;81.59;102398.97;5052977;28;20386;-36
2021/08/23 09:32:28;;;;;;;9.38;6.00;;;;;;;18.74;79.72;102398.94;5053766;28;20028;-36
2021/08/23 09:34:54;;;;;;;8.20;5.60;;;;;;;18.74;82.15;102401.66;5052831;28;20186;-36
2021/08/23 09:37:21;;;;;;;;;;;;;;;18.91;81.30;102400.84;5053679;28;20052;-36
2021/08/23 09:39:46;;;;;;;8.82;6.15;;;;;;;18.75;81.70;102411.56;5052696;28;20273;-36
2021/08/23 09:42:15;;;;;;;;;;;;;;;18.89;82.42;102406.56;5054159;28;20036;-36
2021/08/23 09:44:42;;;;;;;8.35;5.47;;;;;;;18.91;80.04;102400.84;5053436;28;20009;-36
2021/08/23 09:47:08;;;;;;;11.20;5.80;;;;;;;18.95;78.77;102405.56;5052807;28;20032;-36
2021/08/23 09:49:36;;;;;;;8.55;4.95;;;;;;;19.11;78.42;102405.81;5052745;28;20033;-36
2021/08/23 09:52:02;;;;;;;8.55;4.80;;;;;;;19.15;77.65;102385.88;5052573;28;20028;-36
2021/08/23 09:54:29;;;;;;;;;;;;;;;19.46;77.86;102405.50;5053142;28;20021;-36
2021/08/23 09:56:55;;;;;;;7.78;4.65;;;;;;;19.37;74.97;102413.34;5053308;28;20003;-36
2021/08/23 09:59:21;;;;;;;7.57;4.85;;;;;;;19.55;76.21;102409.47;5052595;28;20064;-36
2021/08/23 10:01:48;;;;;;;8.20;4.70;;;;;;;19.71;74.85;102407.78;5052700;28;20505;-36
2021/08/23 10:04:14;;;;;;;6.47;4.68;;;;;;;19.81;75.01;102413.41;5052767;28;20056;-36
2021/08/23 10:06:42;;;;;;;8.75;5.07;;;;;;;19.76;75.43;102410.59;5056652;28;20433;-36
2021/08/23 10:09:09;;;;;;;6.47;3.95;;;;;;;19.71;73.64;102413.28;5056201;28;20112;-36
2021/08/23 10:11:38;;;;;;;8.05;4.15;;;;;;;19.84;75.63;102390.13;5056909;28;20405;-36
2021/08/23 10:14:05;;;;;;;8.43;4.10;;;;;;;20.11;72.75;102410.25;5056257;28;20029;-36
2021/08/23 10:16:32;;;;;;;6.57;3.92;;;;;;;20.10;72.07;102407.72;5056815;28;20111;-36
2021/08/23 10:18:58;;;;;;;5.93;3.67;;;;;;;20.11;72.80;102402.00;5056207;28;20029;-36
2021/08/23 10:21:24;;;;;;;;;;;;;;;20.29;74.15;102409.03;5057154;28;20029;-36
2021/08/23 10:23:51;;;;;;;6.03;3.47;;;;;;;20.19;73.12;102418.00;5056405;28;19904;-36
2021/08/23 10:26:17;;;;;;;8.73;4.18;;;;;;;20.27;72.79;102405.75;5056527;28;20366;-36
2021/08/23 10:28:48;;;;;;;6.22;3.97;;;;;;;20.28;71.69;102410.97;5056002;28;20098;-36
2021/08/23 10:31:14;;;;;;;8.40;4.72;;;;;;;20.13;74.16;102410.78;5055963;28;20025;-36
2021/08/23 10:33:44;;;;;;;6.63;4.20;;;;;;;20.06;74.66;102422.00;5054508;28;20029;-36
2021/08/23 10:36:16;;;;;;;7.72;3.90;;;;;;;20.10;75.72;102407.72;5056114;28;20029;-36
2021/08/23 10:38:43;;;;;;;6.55;4.10;;;;;;;20.25;74.19;102424.38;5056515;28;20028;-36
2021/08/23 10:41:14;;;;;;;6.38;3.65;;;;;;;20.33;73.73;102427.50;5056515;28;20410;-36
2021/08/23 10:43:57;;;;;;;6.50;3.17;;;;;;;20.21;73.14;102421.34;5055329;28;20082;-36
2021/08/23 10:46:24;;;;;;;4.82;3.28;;;;;;;20.27;71.90;102425.78;5056419;28;20106;-36
2021/08/23 10:48:50;;;;;;;4.95;3.10;;;;;;;19.98;71.87;102421.59;5056018;28;20021;-36
2021/08/23 10:51:37;;;;;;;8.15;3.50;;;;;;;19.90;73.55;102422.03;5055784;28;20053;-36
2021/08/23 10:54:20;;;;;;;7.35;4.00;;;;;;;19.82;74.07;102434.31;5055472;28;20461;-36
2021/08/23 10:56:46;;;;;;;5.03;3.65;;;;;;;19.90;73.65;102433.84;5056285;28;20097;-36
2021/08/23 10:59:12;;;;;;;;;;;;;;;20.11;74.86;102426.72;5055896;28;20020;-36
2021/08/23 11:01:38;;;;;;;7.07;3.53;;;;;;;19.99;74.39;102432.31;5055699;28;19904;-36
2021/08/23 11:04:08;;;;;;;7.78;3.65;;;;;;;19.95;73.68;102433.09;5055109;28;20384;-36
2021/08/23 11:06:34;;;;;;;6.50;3.30;;;;;;;19.96;74.45;102410.03;5055693;28;20132;-36
2021/08/23 11:09:11;;;;;;;5.13;3.40;;;;;;;20.10;73.28;102421.47;5055284;28;20373;-36
2021/08/23 11:11:37;;;;;;;;;;;;;;;20.31;73.12;102420.63;5056229;28;20070;-36
2021/08/23 11:14:15;;;;;;;6.65;3.38;;;;;;;20.11;72.36;102410.25;5055199;28;19905;-36
2021/08/23 11:16:41;;;;;;;6.95;3.70;;;;;;;20.28;71.93;102423.88;5054646;28;20056;-36
2021/08/23 11:19:06;;;;;;;;;;;;;;;20.53;73.98;102424.16;5055534;28;20438;-36
2021/08/23 11:21:31;;;;;;;7.65;3.42;;;;;;;20.41;70.11;102430.88;5055310;28;19904;-36
2021/08/23 11:24:04;;;;;;;;;;;;;;;20.54;72.47;102428.56;5053780;28;20458;-36
2021/08/23 11:26:29;;;;;;;7.90;3.90;;;;;;;20.40;71.42;102421.81;5055076;28;19912;-36
2021/08/23 11:28:54;;;;;;;;;;;;;;;20.51;72.52;102429.09;5055257;28;20094;-36
2021/08/23 11:31:20;;;;;;;4.50;3.50;;;;;;;20.27;70.85;102425.78;5055105;28;20364;-36